Time;durP1;ratioP1;P1;durP2;ratioP2;P2;SDS_P1;SDS_P2;PMS_P1;PMS_P2;Temp;Humidity;BMP_temperature;BMP_pressure;BME280_temperature;BME280_humidity;BME280_pressure;Samples;Min_cycle;Max_cycle;Signal;HPM_P1;HPM_P2
2023/05/20 00:00:54;;;;;;;8.90;3.63;;;15.00;97.90;;;;;;4854474;29;20098;-86
2023/05/20 00:03:20;;;;;;;8.95;3.47;;;14.90;97.80;;;;;;4850975;29;20403;-87
2023/05/20 00:05:46;;;;;;;8.30;3.30;;;14.90;97.90;;;;;;4844157;29;20092;-87
2023/05/20 00:08:11;;;;;;;8.02;3.50;;;14.90;98.00;;;;;;4843450;29;20084;-87
2023/05/20 00:10:38;;;;;;;10.18;3.60;;;14.80;98.00;;;;;;4845055;29;20057;-86
2023/05/20 00:13:03;;;;;;;10.68;3.65;;;14.80;98.00;;;;;;4859474;29;20042;-86
2023/05/20 00:15:29;;;;;;;9.63;3.38;;;14.70;98.10;;;;;;4845905;29;20056;-86
2023/05/20 00:17:55;;;;;;;7.55;3.50;;;14.70;98.20;;;;;;4852743;29;20072;-86
2023/05/20 00:20:21;;;;;;;10.00;3.47;;;14.70;98.30;;;;;;4844887;29;20398;-87
2023/05/20 00:22:47;;;;;;;8.32;3.60;;;14.60;98.30;;;;;;4844462;29;20049;-87
2023/05/20 00:25:15;;;;;;;8.32;3.33;;;14.60;98.30;;;;;;4845284;29;20495;-86
2023/05/20 00:27:41;;;;;;;13.23;3.53;;;14.60;98.30;;;;;;4844853;29;20042;-87
2023/05/20 00:30:07;;;;;;;7.22;3.67;;;14.50;98.30;;;;;;4858778;29;20057;-87
2023/05/20 00:32:33;;;;;;;9.45;3.63;;;14.50;98.30;;;;;;4830963;29;20491;-87
2023/05/20 00:35:00;;;;;;;9.18;3.55;;;14.50;98.40;;;;;;4843719;29;20077;-87
2023/05/20 00:37:26;;;;;;;8.43;3.50;;;14.40;98.30;;;;;;4844444;29;20057;-87
2023/05/20 00:39:52;;;;;;;9.25;3.60;;;14.50;98.30;;;;;;4846766;29;20041;-88
2023/05/20 00:42:25;;;;;;;7.85;3.55;;;14.40;98.40;;;;;;4862346;29;20383;-87
2023/05/20 00:44:51;;;;;;;8.63;3.92;;;14.30;98.50;;;;;;4862078;29;20037;-87
2023/05/20 00:47:19;;;;;;;10.07;3.80;;;14.30;98.40;;;;;;4845854;29;20045;-87
2023/05/20 00:49:45;;;;;;;9.27;3.90;;;14.20;98.40;;;;;;4851833;29;20117;-87
2023/05/20 00:52:12;;;;;;;8.95;3.53;;;14.20;98.30;;;;;;4862350;29;20054;-87
2023/05/20 00:54:39;;;;;;;8.60;3.17;;;14.10;98.40;;;;;;4855141;29;20097;-87
2023/05/20 00:57:06;;;;;;;9.48;3.80;;;14.10;98.20;;;;;;4843716;29;20046;-87
2023/05/20 00:59:34;;;;;;;8.18;3.40;;;14.10;98.30;;;;;;4843521;29;20372;-87
2023/05/20 01:02:00;;;;;;;7.00;3.58;;;14.00;98.30;;;;;;4852776;29;20046;-86
2023/05/20 01:04:26;;;;;;;9.18;3.38;;;14.00;98.40;;;;;;4842739;29;20050;-88
2023/05/20 01:06:52;;;;;;;9.45;3.75;;;14.00;98.40;;;;;;4843653;29;20046;-87
2023/05/20 01:09:17;;;;;;;11.75;4.00;;;13.80;98.40;;;;;;4846021;29;20394;-88
2023/05/20 01:12:01;;;;;;;9.10;3.58;;;13.90;98.40;;;;;;4861625;29;20082;-88
2023/05/20 01:14:31;;;;;;;8.88;3.90;;;13.80;98.40;;;;;;4858678;29;20046;-87
2023/05/20 01:17:01;;;;;;;6.78;3.28;;;13.70;98.40;;;;;;4848805;29;20038;-87
2023/05/20 01:19:39;;;;;;;7.35;3.55;;;13.70;98.40;;;;;;4843327;29;20116;-87
2023/05/20 01:22:07;;;;;;;6.95;3.63;;;13.70;98.40;;;;;;4843617;29;20056;-87
2023/05/20 01:24:32;;;;;;;11.48;3.80;;;13.60;98.50;;;;;;4845425;29;20042;-87
2023/05/20 01:26:58;;;;;;;9.82;3.92;;;13.60;98.50;;;;;;4862039;29;20056;-88
2023/05/20 01:29:26;;;;;;;8.50;3.75;;;13.50;98.50;;;;;;4843929;29;20418;-87
2023/05/20 01:31:55;;;;;;;7.80;3.70;;;13.50;98.30;;;;;;4855939;29;20061;-87
2023/05/20 01:34:22;;;;;;;8.52;3.72;;;13.50;98.60;;;;;;4860824;29;20056;-87
2023/05/20 01:36:48;;;;;;;8.25;3.67;;;13.50;98.60;;;;;;4825509;29;20470;-86
2023/05/20 01:39:14;;;;;;;7.65;3.25;;;13.50;98.80;;;;;;4834897;29;20059;-87
2023/05/20 01:41:40;;;;;;;8.40;3.83;;;13.40;98.80;;;;;;4861669;29;20053;-87
2023/05/20 01:44:06;;;;;;;9.45;4.00;;;13.40;98.80;;;;;;4842839;29;20046;-87
2023/05/20 01:46:33;;;;;;;8.65;3.83;;;13.40;98.80;;;;;;4852424;29;20038;-87
2023/05/20 01:48:59;;;;;;;10.13;3.83;;;13.30;98.60;;;;;;4860827;29;20053;-87
2023/05/20 01:51:24;;;;;;;8.57;3.55;;;13.30;98.40;;;;;;4862043;29;20050;-87
2023/05/20 01:53:50;;;;;;;9.00;4.10;;;13.30;98.50;;;;;;4859459;29;20049;-87
2023/05/20 01:56:15;;;;;;;9.20;3.67;;;13.30;98.60;;;;;;4842577;29;20482;-87
2023/05/20 01:58:41;;;;;;;7.60;3.65;;;13.20;98.70;;;;;;4842972;29;20128;-88
2023/05/20 02:01:07;;;;;;;8.88;3.67;;;13.20;98.70;;;;;;4849013;29;20049;-88
2023/05/20 02:03:32;;;;;;;8.07;4.03;;;13.20;98.80;;;;;;4860591;29;20076;-87
2023/05/20 02:05:58;;;;;;;9.73;3.30;;;13.20;98.80;;;;;;4860092;29;20050;-87
2023/05/20 02:08:23;;;;;;;8.48;3.95;;;13.10;98.70;;;;;;4859999;29;20145;-87
2023/05/20 02:10:49;;;;;;;7.20;3.53;;;13.10;98.80;;;;;;4858988;29;20053;-88
2023/05/20 02:13:15;;;;;;;8.30;3.70;;;13.10;98.80;;;;;;4846356;29;20058;-87
2023/05/20 02:15:41;;;;;;;8.57;3.42;;;13.10;98.90;;;;;;4846167;29;20077;-87
2023/05/20 02:18:07;;;;;;;7.47;3.97;;;13.00;98.90;;;;;;4842230;29;20098;-87
2023/05/20 02:20:35;;;;;;;8.30;3.60;;;13.00;98.90;;;;;;4842656;29;20045;-87
2023/05/20 02:23:01;;;;;;;8.43;3.60;;;13.00;98.80;;;;;;4842159;29;20073;-87
2023/05/20 02:25:27;;;;;;;7.28;3.38;;;12.90;98.90;;;;;;4857945;29;20056;-87
2023/05/20 02:27:53;;;;;;;9.13;3.72;;;12.90;98.90;;;;;;4861566;29;20403;-87
2023/05/20 02:30:18;;;;;;;10.25;3.60;;;12.90;99.00;;;;;;4858871;29;20041;-87
2023/05/20 02:32:44;;;;;;;8.38;3.60;;;12.90;99.10;;;;;;4841954;29;20073;-87
2023/05/20 02:35:10;;;;;;;9.77;3.47;;;12.90;99.00;;;;;;4843909;29;20488;-88
2023/05/20 02:37:37;;;;;;;8.20;3.55;;;12.90;99.00;;;;;;4848260;29;20042;-88
2023/05/20 02:40:03;;;;;;;9.32;3.67;;;12.80;99.00;;;;;;4853662;29;20045;-87
2023/05/20 02:42:29;;;;;;;7.80;3.40;;;12.90;99.10;;;;;;4860315;29;20048;-87
2023/05/20 02:44:57;;;;;;;8.93;3.45;;;12.80;99.30;;;;;;4860258;29;20045;-88
2023/05/20 02:47:24;;;;;;;7.55;3.35;;;12.80;99.50;;;;;;4861195;29;20046;-88
2023/05/20 02:49:49;;;;;;;9.50;3.75;;;12.70;99.30;;;;;;4859335;29;20045;-86
2023/05/20 02:52:15;;;;;;;9.73;3.72;;;12.70;99.50;;;;;;4849634;29;20133;-87
2023/05/20 02:54:40;;;;;;;8.30;3.85;;;12.70;99.20;;;;;;4849048;29;20082;-88
2023/05/20 02:57:06;;;;;;;7.80;3.58;;;12.70;99.10;;;;;;4859150;29;20049;-88
2023/05/20 02:59:32;;;;;;;7.03;3.20;;;12.70;99.20;;;;;;4860972;29;20042;-88
2023/05/20 03:01:57;;;;;;;9.20;3.47;;;12.60;99.10;;;;;;4845446;29;20137;-88
2023/05/20 03:04:24;;;;;;;6.38;3.28;;;12.60;99.30;;;;;;4841073;29;20048;-87
2023/05/20 03:06:50;;;;;;;8.65;3.40;;;12.50;99.20;;;;;;4843438;29;20106;-87
2023/05/20 03:09:18;;;;;;;9.55;3.35;;;12.60;99.10;;;;;;4842615;29;20054;-87
2023/05/20 03:11:44;;;;;;;6.93;3.35;;;12.50;99.30;;;;;;4858718;29;20056;-87
2023/05/20 03:14:09;;;;;;;7.05;3.08;;;12.50;99.00;;;;;;4846865;29;20077;-87
2023/05/20 03:16:35;;;;;;;7.47;3.60;;;12.50;99.10;;;;;;4851623;29;20545;-87
2023/05/20 03:19:01;;;;;;;8.32;3.35;;;12.50;99.20;;;;;;4845070;29;20057;-87
2023/05/20 03:21:27;;;;;;;9.48;3.58;;;12.40;99.10;;;;;;4841622;29;20053;-86
2023/05/20 03:23:52;;;;;;;8.05;3.25;;;12.40;99.30;;;;;;4841027;29;20084;-87
2023/05/20 03:26:18;;;;;;;6.88;3.20;;;12.50;99.40;;;;;;4839651;29;20409;-87
2023/05/20 03:28:43;;;;;;;7.32;3.38;;;12.40;99.40;;;;;;4839320;29;20038;-87
2023/05/20 03:31:09;;;;;;;6.32;3.22;;;12.40;99.50;;;;;;4840043;29;20050;-87
2023/05/20 03:33:35;;;;;;;7.93;3.35;;;12.40;99.40;;;;;;4843665;29;20394;-88
2023/05/20 03:36:00;;;;;;;9.27;3.28;;;12.40;99.40;;;;;;4844831;29;20058;-86
2023/05/20 03:38:26;;;;;;;7.32;3.00;;;12.40;99.40;;;;;;4843433;29;20062;-87
2023/05/20 03:40:52;;;;;;;7.18;2.95;;;12.40;99.40;;;;;;4842727;29;20085;-86
2023/05/20 03:43:17;;;;;;;8.38;3.50;;;12.40;99.30;;;;;;4843927;29;20045;-86
2023/05/20 03:45:43;;;;;;;7.93;3.20;;;12.40;99.20;;;;;;4843269;29;20525;-86
2023/05/20 03:48:08;;;;;;;7.15;3.42;;;12.30;99.10;;;;;;4842392;29;20057;-87
2023/05/20 03:50:34;;;;;;;7.22;3.25;;;12.30;99.00;;;;;;4844328;29;20054;-86
2023/05/20 03:53:00;;;;;;;8.00;3.33;;;12.30;98.90;;;;;;4844292;29;20050;-87
2023/05/20 03:55:27;;;;;;;8.45;3.10;;;12.20;99.10;;;;;;4843651;29;20050;-86
2023/05/20 03:57:53;;;;;;;8.57;3.30;;;12.20;99.30;;;;;;4827530;29;20050;-86
2023/05/20 04:00:18;;;;;;;6.82;3.03;;;12.20;99.40;;;;;;4843603;29;20042;-87
2023/05/20 04:02:44;;;;;;;7.78;3.10;;;12.20;99.40;;;;;;4843664;29;20042;-88
2023/05/20 04:05:10;;;;;;;6.18;3.10;;;12.20;99.30;;;;;;4843861;29;20079;-86
2023/05/20 04:07:36;;;;;;;6.68;3.05;;;12.20;99.30;;;;;;4841559;29;20483;-86
2023/05/20 04:10:03;;;;;;;6.00;3.13;;;12.20;99.20;;;;;;4844313;29;20078;-87
2023/05/20 04:12:29;;;;;;;8.10;2.97;;;12.10;99.40;;;;;;4843787;29;20050;-86
2023/05/20 04:15:01;;;;;;;6.05;2.92;;;12.20;99.50;;;;;;4842150;29;20110;-87
2023/05/20 04:17:30;;;;;;;7.80;2.50;;;12.10;99.30;;;;;;4844232;29;20117;-87
2023/05/20 04:19:58;;;;;;;6.45;2.55;;;12.10;99.20;;;;;;4843530;29;20062;-87
2023/05/20 04:22:25;;;;;;;5.72;2.78;;;12.10;99.30;;;;;;4829937;29;20043;-86
2023/05/20 04:24:50;;;;;;;5.80;2.85;;;12.10;99.40;;;;;;4825947;29;20039;-87
2023/05/20 04:27:16;;;;;;;6.45;2.80;;;12.10;99.40;;;;;;4826729;29;20050;-87
2023/05/20 04:29:44;;;;;;;6.03;2.80;;;12.10;99.60;;;;;;4808704;29;20150;-86
2023/05/20 04:32:18;;;;;;;6.55;2.80;;;12.10;99.30;;;;;;4822384;29;20046;-87
2023/05/20 04:34:45;;;;;;;5.97;2.67;;;12.10;99.40;;;;;;4824169;29;20042;-87
2023/05/20 04:37:12;;;;;;;6.25;2.70;;;12.10;99.40;;;;;;4809112;29;20046;-88
2023/05/20 04:39:38;;;;;;;6.53;2.70;;;12.00;99.40;;;;;;4826621;29;20384;-87
2023/05/20 04:42:04;;;;;;;4.70;2.42;;;12.00;99.40;;;;;;4809819;29;20133;-87
2023/05/20 04:44:30;;;;;;;5.45;2.60;;;12.10;99.40;;;;;;4808969;29;20035;-88
2023/05/20 04:46:58;;;;;;;5.07;2.60;;;12.00;99.00;;;;;;4826063;29;20449;-87
2023/05/20 04:49:24;;;;;;;6.25;2.55;;;12.10;98.90;;;;;;4826793;29;20050;-87
2023/05/20 04:51:51;;;;;;;5.00;2.38;;;12.00;99.00;;;;;;4809433;29;20141;-88
2023/05/20 04:54:17;;;;;;;6.32;2.78;;;12.00;99.00;;;;;;4826892;29;20050;-88
2023/05/20 04:56:43;;;;;;;5.00;2.45;;;12.00;99.20;;;;;;4825339;29;20049;-88
2023/05/20 04:59:09;;;;;;;5.75;2.33;;;12.00;99.30;;;;;;4810724;29;20085;-88
2023/05/20 05:01:35;;;;;;;6.30;2.40;;;12.00;99.30;;;;;;4826052;29;20077;-87
2023/05/20 05:04:02;;;;;;;6.25;2.28;;;12.00;99.40;;;;;;4809848;29;20082;-87
2023/05/20 05:06:28;;;;;;;5.78;2.40;;;12.10;99.60;;;;;;4808988;29;20133;-87
2023/05/20 05:08:53;;;;;;;5.80;2.17;;;12.10;99.50;;;;;;4809234;29;20146;-87
2023/05/20 05:11:20;;;;;;;5.25;2.30;;;12.10;99.40;;;;;;4825216;29;20081;-86
2023/05/20 05:13:45;;;;;;;5.22;2.17;;;12.20;99.20;;;;;;4825885;29;20065;-87
2023/05/20 05:16:11;;;;;;;5.28;2.10;;;12.20;99.30;;;;;;4809369;29;20046;-87
2023/05/20 05:18:36;;;;;;;4.68;2.25;;;12.20;99.30;;;;;;4808944;29;20042;-86
2023/05/20 05:21:03;;;;;;;4.97;2.30;;;12.20;99.40;;;;;;4832993;29;20503;-87
2023/05/20 05:23:29;;;;;;;5.50;2.30;;;12.30;99.50;;;;;;4844027;29;20514;-86
2023/05/20 05:25:55;;;;;;;5.72;1.90;;;12.30;99.50;;;;;;4843969;29;20093;-87
2023/05/20 05:28:21;;;;;;;3.95;2.10;;;12.40;99.20;;;;;;4843669;29;20050;-86
2023/05/20 05:30:46;;;;;;;4.72;2.17;;;12.40;99.30;;;;;;4843618;29;20050;-86
2023/05/20 05:33:14;;;;;;;4.95;2.03;;;12.40;99.20;;;;;;4844708;29;20050;-87
2023/05/20 05:35:41;;;;;;;4.97;1.90;;;12.40;99.20;;;;;;4842322;29;20490;-86
2023/05/20 05:38:07;;;;;;;5.15;1.83;;;12.40;99.10;;;;;;4844435;29;20072;-87
2023/05/20 05:40:32;;;;;;;5.03;2.10;;;12.50;99.00;;;;;;4843869;29;20041;-86
2023/05/20 05:42:58;;;;;;;4.22;1.75;;;12.50;99.10;;;;;;4851720;29;20053;-85
2023/05/20 05:45:23;;;;;;;5.55;1.98;;;12.50;99.10;;;;;;4843677;29;20498;-87
2023/05/20 05:47:49;;;;;;;4.70;2.00;;;12.50;98.60;;;;;;4849316;29;20051;-87
2023/05/20 05:50:15;;;;;;;4.20;1.90;;;12.50;98.60;;;;;;4858048;29;20050;-86
2023/05/20 05:52:40;;;;;;;5.80;2.10;;;12.60;98.90;;;;;;4849334;29;20034;-87
2023/05/20 05:55:07;;;;;;;4.60;1.88;;;12.60;98.90;;;;;;4859088;29;20064;-85
2023/05/20 05:57:33;;;;;;;4.55;1.90;;;12.60;98.90;;;;;;4855143;29;20046;-87
2023/05/20 05:59:58;;;;;;;5.65;2.00;;;12.60;98.80;;;;;;4861074;29;20053;-86
2023/05/20 06:02:24;;;;;;;5.70;2.10;;;12.60;98.20;;;;;;4861897;29;20045;-86
2023/05/20 06:04:50;;;;;;;4.22;1.80;;;12.70;98.50;;;;;;4856579;29;20056;-86
2023/05/20 06:07:15;;;;;;;4.07;1.63;;;12.70;98.60;;;;;;4842724;29;20072;-87
2023/05/20 06:09:41;;;;;;;5.18;1.75;;;12.70;98.70;;;;;;4846512;29;20060;-85
2023/05/20 06:12:06;;;;;;;8.90;1.75;;;12.80;98.80;;;;;;4846911;29;20535;-87
2023/05/20 06:14:32;;;;;;;4.35;1.80;;;12.80;98.60;;;;;;4843444;29;20049;-87
2023/05/20 06:16:58;;;;;;;6.50;1.70;;;12.80;98.50;;;;;;4854169;29;20053;-85
2023/05/20 06:19:23;;;;;;;3.92;1.63;;;12.90;98.80;;;;;;4854899;29;20041;-86
2023/05/20 06:21:49;;;;;;;3.15;1.58;;;12.90;98.70;;;;;;4847287;29;20148;-86
2023/05/20 06:24:14;;;;;;;4.10;1.50;;;12.90;98.40;;;;;;4843672;29;20046;-87
2023/05/20 06:26:40;;;;;;;4.72;1.42;;;13.00;98.00;;;;;;4842671;29;20081;-88
2023/05/20 06:29:06;;;;;;;5.32;1.60;;;13.10;98.50;;;;;;4841847;29;20060;-88
2023/05/20 06:31:31;;;;;;;3.20;1.30;;;13.10;98.10;;;;;;4848762;29;20410;-89
2023/05/20 06:33:57;;;;;;;4.20;1.33;;;13.10;98.00;;;;;;4848656;29;20132;-89
2023/05/20 06:36:22;;;;;;;3.25;1.40;;;13.20;97.90;;;;;;4842272;29;20046;-88
2023/05/20 06:38:48;;;;;;;4.22;1.60;;;13.30;97.80;;;;;;4843713;29;20049;-88
2023/05/20 06:41:14;;;;;;;3.83;1.65;;;13.30;97.90;;;;;;4850523;29;20049;-87
2023/05/20 06:43:39;;;;;;;3.17;1.60;;;13.40;98.30;;;;;;4851101;29;20038;-88
2023/05/20 06:46:05;;;;;;;3.50;1.40;;;13.40;98.30;;;;;;4843618;29;20165;-90
2023/05/20 06:48:31;;;;;;;3.15;1.30;;;13.50;98.30;;;;;;4843152;29;20384;-88
2023/05/20 06:50:57;;;;;;;3.47;1.30;;;13.60;98.30;;;;;;4842529;29;20052;-90
2023/05/20 06:53:22;;;;;;;3.90;1.48;;;13.70;98.30;;;;;;4841770;29;20082;-88
2023/05/20 06:55:48;;;;;;;4.32;1.25;;;13.80;98.20;;;;;;4852780;29;20542;-88
2023/05/20 06:58:13;;;;;;;5.00;1.45;;;13.90;97.90;;;;;;4859108;29;20049;-88
2023/05/20 07:00:40;;;;;;;4.43;1.35;;;13.90;97.60;;;;;;4853279;29;20053;-92
2023/05/20 07:03:06;;;;;;;5.10;1.63;;;14.00;97.40;;;;;;4841565;29;20219;-88
2023/05/20 07:05:31;;;;;;;4.40;1.30;;;14.10;97.60;;;;;;4848381;29;20046;-93
2023/05/20 07:07:57;;;;;;;4.35;1.42;;;14.10;97.40;;;;;;4851436;29;20050;-88
2023/05/20 07:10:22;;;;;;;5.32;1.60;;;14.20;97.10;;;;;;4840556;29;20050;-87
2023/05/20 07:12:48;;;;;;;2.92;1.27;;;14.40;97.20;;;;;;4843974;29;20528;-87
2023/05/20 07:15:14;;;;;;;4.07;1.50;;;14.40;97.40;;;;;;4844101;29;20078;-91
2023/05/20 07:17:39;;;;;;;3.20;1.35;;;14.50;97.40;;;;;;4842343;29;20491;-88
2023/05/20 07:20:06;;;;;;;3.13;1.25;;;14.60;97.30;;;;;;4846883;29;20061;-89
2023/05/20 07:22:32;;;;;;;4.07;1.25;;;14.60;97.10;;;;;;4849472;29;20053;-90
2023/05/20 07:24:59;;;;;;;3.35;1.33;;;14.70;97.40;;;;;;4852451;29;20049;-90
2023/05/20 07:27:25;;;;;;;3.70;1.60;;;14.80;96.90;;;;;;4845196;29;20050;-90
2023/05/20 07:29:51;;;;;;;4.18;1.50;;;14.90;96.90;;;;;;4859822;29;20442;-90
2023/05/20 07:32:22;;;;;;;4.55;1.33;;;14.90;96.80;;;;;;4857970;29;20494;-90
2023/05/20 07:34:47;;;;;;;3.65;1.42;;;15.10;96.40;;;;;;4842321;29;20049;-91
2023/05/20 07:37:18;;;;;;;3.53;1.30;;;15.20;96.30;;;;;;4843190;29;20562;-89
2023/05/20 07:39:44;;;;;;;3.70;1.48;;;15.30;96.50;;;;;;4859243;29;20116;-92
2023/05/20 07:42:13;;;;;;;5.38;1.55;;;15.30;96.60;;;;;;4861827;29;20506;-91
2023/05/20 07:44:44;;;;;;;3.28;1.40;;;15.40;96.50;;;;;;4852624;29;20077;-90
2023/05/20 07:47:10;;;;;;;4.80;1.55;;;15.50;96.90;;;;;;4852133;29;20046;-90
2023/05/20 07:49:51;;;;;;;3.10;1.40;;;15.50;96.90;;;;;;4858183;29;20117;-87
2023/05/20 07:52:17;;;;;;;2.97;1.33;;;15.70;97.00;;;;;;4841514;29;20070;-87
2023/05/20 07:55:02;;;;;;;3.83;1.40;;;15.80;97.00;;;;;;4853575;29;20103;-89
2023/05/20 07:57:28;;;;;;;5.53;1.50;;;15.80;95.90;;;;;;4845309;29;20487;-91
2023/05/20 07:59:54;;;;;;;3.75;1.50;;;15.90;95.50;;;;;;4859174;29;20089;-90
2023/05/20 08:02:22;;;;;;;3.03;1.38;;;16.00;96.00;;;;;;4861365;29;20132;-91
2023/05/20 08:04:48;;;;;;;4.63;1.50;;;16.10;95.50;;;;;;4861276;29;20042;-90
2023/05/20 08:07:16;;;;;;;4.78;1.50;;;16.10;95.10;;;;;;4853777;29;20060;-91
2023/05/20 08:09:42;;;;;;;4.00;1.80;;;16.20;95.10;;;;;;4850416;29;20074;-86
2023/05/20 08:12:07;;;;;;;4.68;1.40;;;16.30;95.70;;;;;;4841501;29;20038;-91
2023/05/20 08:14:33;;;;;;;3.13;1.30;;;16.40;95.70;;;;;;4854711;29;20050;-90
2023/05/20 08:17:01;;;;;;;5.00;1.50;;;16.50;95.90;;;;;;4851474;29;20069;-92
2023/05/20 08:19:27;;;;;;;4.22;1.60;;;16.50;95.90;;;;;;4853944;29;20056;-90
2023/05/20 08:21:53;;;;;;;4.85;2.00;;;16.60;95.40;;;;;;4846327;29;20172;-92
2023/05/20 08:24:18;;;;;;;7.85;1.85;;;16.70;94.50;;;;;;4860286;29;20137;-86
2023/05/20 08:27:23;;;;;;;6.57;1.85;;;16.80;94.90;;;;;;4852398;29;20471;-88
2023/05/20 08:29:49;;;;;;;5.18;1.95;;;16.80;95.20;;;;;;4843433;29;20042;-88
2023/05/20 08:32:41;;;;;;;6.43;1.80;;;16.90;95.10;;;;;;4845145;29;20487;-90
2023/05/20 08:35:15;;;;;;;3.85;1.55;;;17.00;95.30;;;;;;4854554;29;20090;-90
2023/05/20 08:37:49;;;;;;;5.20;1.83;;;17.10;95.60;;;;;;4860097;29;20049;-88
2023/05/20 08:40:15;;;;;;;5.13;1.77;;;17.20;95.30;;;;;;4856199;29;20042;-87
2023/05/20 08:43:01;;;;;;;5.28;1.52;;;17.30;95.60;;;;;;4844004;29;20042;-89
2023/05/20 08:45:39;;;;;;;4.32;1.60;;;17.40;95.50;;;;;;4844300;29;20380;-89
2023/05/20 08:48:26;;;;;;;4.25;1.80;;;17.50;96.00;;;;;;4844358;29;20137;-91
2023/05/20 08:50:59;;;;;;;6.80;1.70;;;17.60;94.80;;;;;;4847803;29;20391;-91
2023/05/20 09:08:43;;;;;;;5.07;2.10;;;18.00;94.30;;;;;;4752683;30;20059;-89
2023/05/20 09:11:21;;;;;;;4.90;2.20;;;18.10;93.20;;;;;;4749436;30;20521;-90
2023/05/20 09:14:11;;;;;;;5.00;1.95;;;18.10;93.10;;;;;;4779661;29;20139;-90
2023/05/20 09:16:51;;;;;;;4.13;1.63;;;18.30;94.00;;;;;;4772606;30;20051;-90
2023/05/20 09:19:42;;;;;;;4.70;2.00;;;18.40;94.40;;;;;;4824666;29;20050;-88
2023/05/20 09:28:59;;;;;;;5.22;1.90;;;18.60;93.60;;;;;;4789725;29;20065;-87
2023/05/20 09:31:35;;;;;;;5.45;2.03;;;18.70;93.10;;;;;;4783970;29;20051;-89
2023/05/20 09:34:01;;;;;;;7.53;1.73;;;18.80;93.40;;;;;;4818461;29;20062;-89
2023/05/20 09:36:30;;;;;;;3.72;1.65;;;18.90;93.50;;;;;;4843893;29;20066;-87
2023/05/20 09:39:02;;;;;;;3.35;1.88;;;19.00;93.60;;;;;;4843121;29;20576;-90
2023/05/20 09:41:52;;;;;;;4.30;1.60;;;19.00;94.10;;;;;;4827463;29;20133;-87
2023/05/20 09:44:30;;;;;;;4.38;1.80;;;19.10;93.50;;;;;;4843745;29;20049;-88
2023/05/20 09:46:59;;;;;;;4.85;1.83;;;19.20;93.60;;;;;;4842852;29;20046;-87
2023/05/20 09:49:27;;;;;;;5.30;2.25;;;19.30;92.60;;;;;;4826989;29;20396;-87
2023/05/20 09:51:53;;;;;;;5.43;1.98;;;19.30;92.60;;;;;;4842287;29;20380;-87
2023/05/20 09:54:26;;;;;;;4.47;1.80;;;19.50;93.30;;;;;;4843274;29;20042;-87
2023/05/20 09:57:18;;;;;;;5.00;1.90;;;19.60;93.70;;;;;;4830298;29;20045;-87
2023/05/20 09:59:56;;;;;;;4.55;1.83;;;19.60;92.60;;;;;;4863237;24;20085;-89
2023/05/20 10:02:22;;;;;;;5.07;2.10;;;19.70;92.50;;;;;;4857121;29;20514;-88
2023/05/20 10:04:58;;;;;;;6.75;2.08;;;19.70;92.90;;;;;;4850567;29;20046;-89
2023/05/20 10:07:56;;;;;;;5.35;1.80;;;19.80;92.70;;;;;;4857865;29;20088;-86
2023/05/20 10:11:22;;;;;;;3.30;1.60;;;19.80;91.70;;;;;;4845048;29;20049;-89
2023/05/20 10:14:28;;;;;;;4.72;1.95;;;19.80;92.60;;;;;;4793346;29;20127;-87
2023/05/20 10:17:17;;;;;;;;;;;;;;;;;;;;;
2023/05/20 10:19:43;;;;;;;4.53;1.90;;;20.00;92.20;;;;;;4849011;29;20061;-88
2023/05/20 10:22:13;;;;;;;5.03;1.90;;;20.10;92.50;;;;;;4844105;29;20165;-87
2023/05/20 10:25:08;;;;;;;;;;;;;;;;;;;;;
2023/05/20 10:27:44;;;;;;;;;;;20.30;92.70;;;;;;4843521;29;20058;-88
2023/05/20 10:30:21;;;;;;;4.20;1.83;;;20.30;93.10;;;;;;4844248;29;19975;-87
2023/05/20 10:33:09;;;;;;;;;;;;;;;;;;;;;
2023/05/20 10:36:05;;;;;;;5.28;2.10;;;20.50;92.40;;;;;;4822931;29;20523;-89
2023/05/20 10:38:57;;;;;;;6.07;1.90;;;20.50;92.40;;;;;;4838087;29;20055;-89
2023/05/20 10:42:36;;;;;;;3.35;1.80;;;20.60;92.30;;;;;;4823089;29;20046;-89
2023/05/20 10:45:40;;;;;;;4.47;1.80;;;20.60;92.70;;;;;;4762510;29;20130;-89
2023/05/20 10:48:30;;;;;;;4.05;1.70;;;20.70;92.70;;;;;;4839548;29;20062;-89
2023/05/20 10:50:58;;;;;;;4.32;2.08;;;20.80;92.30;;;;;;4837141;29;20046;-87
2023/05/20 10:53:27;;;;;;;5.43;1.73;;;20.90;92.30;;;;;;4839785;29;20098;-86
2023/05/20 10:55:53;;;;;;;3.78;1.40;;;20.90;90.60;;;;;;4832808;29;20045;-86
2023/05/20 10:58:22;;;;;;;3.25;1.63;;;21.00;91.60;;;;;;4841232;29;20098;-85
2023/05/20 11:00:53;;;;;;;3.67;1.65;;;21.10;92.10;;;;;;4851421;29;20064;-86
2023/05/20 11:03:21;;;;;;;6.28;1.83;;;21.10;92.20;;;;;;4855732;24;20514;-85
2023/05/20 11:05:47;;;;;;;5.60;1.80;;;21.20;91.70;;;;;;4839562;29;20129;-85
2023/05/20 11:08:13;;;;;;;4.47;1.75;;;21.20;91.40;;;;;;4836867;29;20491;-84
2023/05/20 11:10:41;;;;;;;3.35;1.63;;;21.20;92.30;;;;;;4816930;29;20145;-86
2023/05/20 11:13:07;;;;;;;4.63;1.80;;;21.30;92.50;;;;;;4836943;29;20048;-85
2023/05/20 11:15:35;;;;;;;4.70;2.03;;;21.30;91.20;;;;;;4836758;29;20137;-84
2023/05/20 11:18:02;;;;;;;5.35;1.88;;;21.30;90.70;;;;;;4823580;29;20103;-83
2023/05/20 11:20:29;;;;;;;4.38;1.83;;;21.40;91.80;;;;;;4807669;29;20062;-84
2023/05/20 11:22:57;;;;;;;4.25;1.75;;;21.50;92.10;;;;;;4822865;29;20050;-85
2023/05/20 11:25:23;;;;;;;5.45;2.03;;;21.60;91.40;;;;;;4823389;29;20463;-85
2023/05/20 11:27:49;;;;;;;7.38;2.00;;;21.50;91.10;;;;;;4825631;29;20077;-86
2023/05/20 11:30:16;;;;;;;4.88;1.83;;;21.50;88.00;;;;;;4842230;29;20091;-85
2023/05/20 11:33:01;;;;;;;5.65;1.83;;;21.60;87.40;;;;;;4841455;29;20078;-85
2023/05/20 11:35:30;;;;;;;3.90;1.70;;;21.50;89.50;;;;;;4842531;29;20057;-83
2023/05/20 11:38:03;;;;;;;4.63;1.80;;;21.50;90.50;;;;;;4841736;29;20058;-85
2023/05/20 11:40:30;;;;;;;;;;;21.60;89.40;;;;;;4841551;29;20068;-85
2023/05/20 11:42:57;;;;;;;4.80;1.75;;;21.50;90.50;;;;;;4842009;29;19932;-85
2023/05/20 11:45:23;;;;;;;6.07;1.60;;;21.60;90.50;;;;;;4828299;29;20133;-85
2023/05/20 11:48:00;;;;;;;5.85;1.77;;;21.60;90.40;;;;;;4824420;29;20102;-85
2023/05/20 11:50:26;;;;;;;5.80;1.60;;;21.70;88.80;;;;;;4823708;29;20063;-86
2023/05/20 11:52:59;;;;;;;3.85;1.80;;;21.70;90.50;;;;;;4827639;29;20173;-85
2023/05/20 11:55:25;;;;;;;3.80;1.60;;;21.70;90.60;;;;;;4842543;29;20407;-86
2023/05/20 11:57:51;;;;;;;3.80;1.60;;;21.70;90.50;;;;;;4843470;29;20084;-85
2023/05/20 12:00:17;;;;;;;3.13;1.40;;;21.80;90.90;;;;;;4844219;29;20057;-85
2023/05/20 12:02:46;;;;;;;3.95;1.77;;;21.80;91.30;;;;;;4843716;29;20054;-85
2023/05/20 12:05:12;;;;;;;6.43;1.60;;;21.80;90.80;;;;;;4842573;29;20096;-85
2023/05/20 12:07:38;;;;;;;4.45;1.70;;;21.90;89.80;;;;;;4844264;29;20046;-86
2023/05/20 12:10:04;;;;;;;4.05;1.90;;;21.90;90.50;;;;;;4843716;29;20069;-85
2023/05/20 12:12:30;;;;;;;4.30;1.48;;;21.90;88.40;;;;;;4835833;29;20130;-86
2023/05/20 12:14:56;;;;;;;5.65;1.80;;;22.00;90.80;;;;;;4842430;29;20057;-86
2023/05/20 12:17:21;;;;;;;3.10;1.33;;;22.00;90.70;;;;;;4841910;29;20465;-85
2023/05/20 12:19:47;;;;;;;3.20;1.50;;;22.00;89.80;;;;;;4824482;29;20050;-85
2023/05/20 12:22:12;;;;;;;4.22;1.60;;;22.00;90.10;;;;;;4827154;29;20046;-86
2023/05/20 12:24:38;;;;;;;2.92;1.50;;;22.10;90.10;;;;;;4827168;29;20050;-86
2023/05/20 12:27:05;;;;;;;3.60;1.58;;;22.10;91.10;;;;;;4825156;29;20054;-86
2023/05/20 12:29:31;;;;;;;3.42;1.55;;;22.10;91.00;;;;;;4837208;29;20060;-86
2023/05/20 12:31:57;;;;;;;4.53;1.65;;;22.20;90.50;;;;;;4843792;29;20392;-86
2023/05/20 12:34:22;;;;;;;4.22;1.60;;;22.20;90.40;;;;;;4841847;29;20060;-86
2023/05/20 12:36:48;;;;;;;3.85;1.58;;;22.20;89.00;;;;;;4841807;29;20050;-85
2023/05/20 12:39:16;;;;;;;4.03;1.80;;;22.20;88.30;;;;;;4843172;29;20046;-85
2023/05/20 12:41:42;;;;;;;3.10;1.50;;;22.20;88.80;;;;;;4842668;29;20094;-86
2023/05/20 12:44:08;;;;;;;4.90;1.60;;;22.30;90.50;;;;;;4842076;29;20045;-86
2023/05/20 12:46:36;;;;;;;3.28;1.40;;;22.30;90.40;;;;;;4844515;29;20078;-85
2023/05/20 12:49:03;;;;;;;4.15;1.60;;;22.40;90.70;;;;;;4834602;29;20046;-86
2023/05/20 12:51:28;;;;;;;4.47;1.88;;;22.40;90.30;;;;;;4842448;29;20121;-86
2023/05/20 12:53:54;;;;;;;5.85;1.67;;;22.30;90.60;;;;;;4843173;29;20512;-87
2023/05/20 12:56:21;;;;;;;6.00;1.77;;;22.40;91.00;;;;;;4838692;29;20045;-85
2023/05/20 12:58:47;;;;;;;4.15;1.52;;;22.50;91.00;;;;;;4841459;29;20501;-86
2023/05/20 13:01:12;;;;;;;4.10;1.80;;;22.50;90.70;;;;;;4842992;29;20042;-86
2023/05/20 13:03:38;;;;;;;4.90;1.75;;;22.50;90.20;;;;;;4840605;29;20481;-85
2023/05/20 13:06:04;;;;;;;6.18;1.70;;;22.50;88.50;;;;;;4851115;29;20061;-85
2023/05/20 13:08:30;;;;;;;3.05;1.45;;;22.50;90.50;;;;;;4843242;29;20062;-86
2023/05/20 13:10:56;;;;;;;5.43;1.80;;;22.50;91.10;;;;;;4844004;29;20106;-86
2023/05/20 13:13:22;;;;;;;3.95;1.40;;;22.50;89.90;;;;;;4846942;29;20145;-84
2023/05/20 13:15:48;;;;;;;3.35;1.50;;;22.50;89.10;;;;;;4847096;29;20102;-85
2023/05/20 13:18:15;;;;;;;5.55;1.70;;;22.60;90.10;;;;;;4849760;29;20045;-84
2023/05/20 13:20:42;;;;;;;3.65;1.50;;;22.60;90.30;;;;;;4839367;29;20077;-84